FFT3453 KLGA-KATL
Flight info
| Callsign | FFT3453 |
|---|---|
| Flight time | 1h 49m |
| Altitude | 38000 |
| Route | NTHNS6 ASALT LANNA J48 MOL FLASK OZZZI2 |
| Aircraft | A20N/M-SDE2E3FGHIRWXY/LB1 |
Departure
| Time | 2026-05-04 22:46 |
|---|---|
| Airport | LaGuardia Airport (KLGA) |
Arrival
| Time | 2026-05-05 00:36 |
|---|---|
| Airport | Hartsfield Jackson Atlanta International Airport (KATL) |
| Time | Latitude | Longitude | Altitude | Speed | Heading |
|---|---|---|---|---|---|
| 2026-05-04 22:27 | 40.77426 | -73.87000 | 14 ft | 0 kts | 130° |
| 2026-05-04 22:37 | 40.77429 | -73.87003 | 14 ft | 2 kts | 130° |
| 2026-05-04 22:37 | 40.77439 | -73.87019 | 15 ft | 2 kts | 130° |
| 2026-05-04 22:37 | 40.77446 | -73.87030 | 15 ft | 0 kts | 130° |
| 2026-05-04 22:38 | 40.77452 | -73.87045 | 15 ft | 2 kts | 94° |
| 2026-05-04 22:38 | 40.77450 | -73.87064 | 15 ft | 2 kts | 56° |
| 2026-05-04 22:38 | 40.77444 | -73.87073 | 15 ft | 1 kts | 33° |
| 2026-05-04 22:38 | 40.77438 | -73.87077 | 15 ft | 0 kts | 31° |
| 2026-05-04 22:41 | 40.77443 | -73.87072 | 15 ft | 2 kts | 31° |
| 2026-05-04 22:41 | 40.77471 | -73.87050 | 14 ft | 8 kts | 31° |
| 2026-05-04 22:42 | 40.77526 | -73.87004 | 14 ft | 10 kts | 33° |
| 2026-05-04 22:42 | 40.77592 | -73.86952 | 14 ft | 11 kts | 12° |
| 2026-05-04 22:42 | 40.77658 | -73.86999 | 14 ft | 9 kts | 359° |
| 2026-05-04 22:42 | 40.77722 | -73.87025 | 14 ft | 10 kts | 306° |
| 2026-05-04 22:43 | 40.77761 | -73.87110 | 14 ft | 11 kts | 302° |
| 2026-05-04 22:43 | 40.77804 | -73.87201 | 14 ft | 11 kts | 302° |
| 2026-05-04 22:43 | 40.77849 | -73.87293 | 14 ft | 12 kts | 302° |
| 2026-05-04 22:43 | 40.77889 | -73.87377 | 14 ft | 10 kts | 301° |
| 2026-05-04 22:44 | 40.77911 | -73.87424 | 15 ft | 0 kts | 302° |
| 2026-05-04 22:44 | 40.77913 | -73.87427 | 14 ft | 1 kts | 302° |
| 2026-05-04 22:44 | 40.77931 | -73.87463 | 14 ft | 7 kts | 303° |
| 2026-05-04 22:44 | 40.77962 | -73.87528 | 15 ft | 8 kts | 301° |
| 2026-05-04 22:45 | 40.78006 | -73.87621 | 15 ft | 14 kts | 303° |
| 2026-05-04 22:45 | 40.78119 | -73.87840 | 15 ft | 14 kts | 325° |
| 2026-05-04 22:45 | 40.78208 | -73.87848 | 14 ft | 6 kts | 45° |
| 2026-05-04 22:46 | 40.78175 | -73.87740 | 14 ft | 35 kts | 122° |
| 2026-05-04 22:46 | 40.77906 | -73.87179 | 14 ft | 107 kts | 122° |
| 2026-05-04 22:46 | 40.77398 | -73.86106 | 47 ft | 160 kts | 126° |
| 2026-05-04 22:46 | 40.76828 | -73.84879 | 702 ft | 156 kts | 126° |
| 2026-05-04 22:47 | 40.76137 | -73.83851 | 1276 ft | 152 kts | 160° |
| 2026-05-04 22:47 | 40.75136 | -73.83475 | 1875 ft | 151 kts | 176° |
| 2026-05-04 22:47 | 40.74061 | -73.83263 | 2298 ft | 165 kts | 177° |
| 2026-05-04 22:47 | 40.72862 | -73.82999 | 2716 ft | 183 kts | 175° |
| 2026-05-04 22:48 | 40.71577 | -73.82951 | 3127 ft | 193 kts | 198° |
| 2026-05-04 22:48 | 40.70379 | -73.83848 | 3469 ft | 211 kts | 229° |
| 2026-05-04 22:48 | 40.69433 | -73.85369 | 4164 ft | 218 kts | 232° |
| 2026-05-04 22:48 | 40.68450 | -73.86896 | 4966 ft | 222 kts | 232° |
| 2026-05-04 22:49 | 40.67692 | -73.88637 | 5727 ft | 224 kts | 258° |
| 2026-05-04 22:49 | 40.67662 | -73.90662 | 6464 ft | 230 kts | 283° |
| 2026-05-04 22:49 | 40.68350 | -73.92645 | 7003 ft | 248 kts | 300° |
| 2026-05-04 22:49 | 40.69278 | -73.94653 | 7583 ft | 263 kts | 300° |
| 2026-05-04 22:50 | 40.70342 | -73.96616 | 8413 ft | 268 kts | 309° |
| 2026-05-04 22:50 | 40.71681 | -73.98336 | 9330 ft | 271 kts | 318° |
| 2026-05-04 22:50 | 40.73142 | -73.99855 | 10199 ft | 273 kts | 320° |
| 2026-05-04 22:50 | 40.74686 | -74.01413 | 10840 ft | 284 kts | 320° |
| 2026-05-04 22:51 | 40.76294 | -74.03039 | 11327 ft | 299 kts | 320° |
| 2026-05-04 22:51 | 40.77956 | -74.04719 | 11817 ft | 301 kts | 319° |
| 2026-05-04 22:51 | 40.79592 | -74.06445 | 11997 ft | 299 kts | 313° |
| 2026-05-04 22:51 | 40.80733 | -74.08694 | 11978 ft | 294 kts | 289° |
| 2026-05-04 22:52 | 40.81015 | -74.11369 | 11989 ft | 295 kts | 266° |
| 2026-05-04 22:52 | 40.80665 | -74.14038 | 12003 ft | 296 kts | 259° |
| 2026-05-04 22:52 | 40.80178 | -74.16672 | 12007 ft | 297 kts | 258° |
| 2026-05-04 22:52 | 40.79655 | -74.19309 | 12019 ft | 297 kts | 256° |
| 2026-05-04 22:53 | 40.78963 | -74.21925 | 12253 ft | 305 kts | 252° |
| 2026-05-04 22:53 | 40.78210 | -74.24538 | 13088 ft | 306 kts | 252° |
| 2026-05-04 22:53 | 40.77462 | -74.27137 | 14012 ft | 304 kts | 252° |
| 2026-05-04 22:53 | 40.76720 | -74.29738 | 14772 ft | 307 kts | 252° |
| 2026-05-04 22:54 | 40.75962 | -74.32413 | 15493 ft | 311 kts | 252° |
| 2026-05-04 22:54 | 40.75213 | -74.35071 | 16184 ft | 315 kts | 253° |
| 2026-05-04 22:54 | 40.74440 | -74.37820 | 16739 ft | 318 kts | 252° |
| 2026-05-04 22:54 | 40.73669 | -74.40555 | 16992 ft | 319 kts | 253° |
| 2026-05-04 22:55 | 40.72900 | -74.43287 | 17005 ft | 319 kts | 253° |
| 2026-05-04 22:55 | 40.72121 | -74.46054 | 17010 ft | 319 kts | 253° |
| 2026-05-04 22:55 | 40.71347 | -74.48801 | 17013 ft | 320 kts | 253° |
| 2026-05-04 22:55 | 40.70576 | -74.51539 | 17014 ft | 320 kts | 253° |
| 2026-05-04 22:56 | 40.69802 | -74.54280 | 17015 ft | 320 kts | 253° |
| 2026-05-04 22:56 | 40.69022 | -74.57046 | 17016 ft | 320 kts | 253° |
| 2026-05-04 22:56 | 40.68246 | -74.59789 | 17015 ft | 320 kts | 253° |
| 2026-05-04 22:56 | 40.67461 | -74.62558 | 17018 ft | 319 kts | 253° |
| 2026-05-04 22:57 | 40.66688 | -74.65288 | 17017 ft | 319 kts | 252° |
| 2026-05-04 22:57 | 40.65908 | -74.68041 | 17018 ft | 320 kts | 252° |
| 2026-05-04 22:57 | 40.65119 | -74.70823 | 17016 ft | 319 kts | 252° |
| 2026-05-04 22:57 | 40.64342 | -74.73556 | 17016 ft | 320 kts | 252° |
| 2026-05-04 22:58 | 40.63562 | -74.76298 | 17018 ft | 320 kts | 252° |
| 2026-05-04 22:58 | 40.62785 | -74.79022 | 17048 ft | 319 kts | 252° |
| 2026-05-04 22:58 | 40.62005 | -74.81757 | 17049 ft | 319 kts | 252° |
| 2026-05-04 22:58 | 40.61214 | -74.84530 | 17007 ft | 318 kts | 252° |
| 2026-05-04 22:59 | 40.60438 | -74.87247 | 17040 ft | 319 kts | 252° |
| 2026-05-04 22:59 | 40.59654 | -74.89989 | 17011 ft | 319 kts | 252° |
| 2026-05-04 22:59 | 40.58863 | -74.92750 | 17053 ft | 319 kts | 252° |
| 2026-05-04 22:59 | 40.58081 | -74.95473 | 17044 ft | 320 kts | 252° |
| 2026-05-04 23:00 | 40.57284 | -74.98257 | 17290 ft | 326 kts | 252° |
| 2026-05-04 23:00 | 40.56414 | -75.00996 | 17998 ft | 329 kts | 247° |
| 2026-05-04 23:00 | 40.55266 | -75.03652 | 18686 ft | 333 kts | 240° |
| 2026-05-04 23:00 | 40.53876 | -75.06118 | 19406 ft | 338 kts | 236° |
| 2026-05-04 23:01 | 40.52385 | -75.08512 | 19963 ft | 343 kts | 235° |
| 2026-05-04 23:01 | 40.50845 | -75.10951 | 20585 ft | 347 kts | 235° |
| 2026-05-04 23:01 | 40.49298 | -75.13397 | 21211 ft | 350 kts | 235° |
| 2026-05-04 23:01 | 40.47737 | -75.15865 | 21831 ft | 353 kts | 235° |
| 2026-05-04 23:02 | 40.46151 | -75.18374 | 22427 ft | 357 kts | 235° |
| 2026-05-04 23:02 | 40.44566 | -75.20882 | 22990 ft | 361 kts | 236° |
| 2026-05-04 23:02 | 40.42948 | -75.23441 | 23567 ft | 365 kts | 236° |
| 2026-05-04 23:02 | 40.41312 | -75.26026 | 24118 ft | 369 kts | 235° |
| 2026-05-04 23:03 | 40.39650 | -75.28654 | 24636 ft | 373 kts | 235° |
| 2026-05-04 23:03 | 40.37993 | -75.31271 | 25163 ft | 377 kts | 235° |
| 2026-05-04 23:03 | 40.36313 | -75.33916 | 25667 ft | 380 kts | 235° |
| 2026-05-04 23:03 | 40.34606 | -75.36603 | 26144 ft | 383 kts | 235° |
| 2026-05-04 23:04 | 40.32893 | -75.39301 | 26618 ft | 386 kts | 235° |
| 2026-05-04 23:04 | 40.31163 | -75.42020 | 27065 ft | 390 kts | 235° |
| 2026-05-04 23:04 | 40.29435 | -75.44733 | 27504 ft | 393 kts | 235° |
| 2026-05-04 23:04 | 40.27667 | -75.47510 | 27937 ft | 396 kts | 235° |
| 2026-05-04 23:05 | 40.25890 | -75.50291 | 28371 ft | 399 kts | 235° |
| 2026-05-04 23:05 | 40.24084 | -75.53120 | 28783 ft | 402 kts | 235° |
| 2026-05-04 23:05 | 40.22356 | -75.55978 | 29160 ft | 404 kts | 238° |
| 2026-05-04 23:05 | 40.20722 | -75.59023 | 29553 ft | 405 kts | 241° |
| 2026-05-04 23:06 | 40.19173 | -75.62105 | 29938 ft | 408 kts | 241° |
| 2026-05-04 23:06 | 40.17605 | -75.65230 | 30293 ft | 411 kts | 240° |
| 2026-05-04 23:06 | 40.16021 | -75.68385 | 30633 ft | 414 kts | 240° |
| 2026-05-04 23:06 | 40.14438 | -75.71531 | 30949 ft | 417 kts | 240° |
| 2026-05-04 23:07 | 40.12820 | -75.74743 | 31279 ft | 420 kts | 240° |
| 2026-05-04 23:07 | 40.11224 | -75.77908 | 31576 ft | 422 kts | 240° |
| 2026-05-04 23:07 | 40.09587 | -75.81151 | 31899 ft | 424 kts | 240° |
| 2026-05-04 23:07 | 40.07959 | -75.84372 | 32282 ft | 423 kts | 240° |
| 2026-05-04 23:08 | 40.06353 | -75.87540 | 32694 ft | 422 kts | 240° |
| 2026-05-04 23:08 | 40.04732 | -75.90739 | 33082 ft | 420 kts | 240° |
| 2026-05-04 23:08 | 40.03117 | -75.93923 | 33428 ft | 420 kts | 240° |
| 2026-05-04 23:08 | 40.01506 | -75.97096 | 33770 ft | 419 kts | 240° |
| 2026-05-04 23:09 | 39.99873 | -76.00310 | 34102 ft | 419 kts | 240° |
| 2026-05-04 23:09 | 39.98265 | -76.03469 | 34429 ft | 418 kts | 240° |
| 2026-05-04 23:09 | 39.96659 | -76.06625 | 34729 ft | 418 kts | 240° |
| 2026-05-04 23:09 | 39.95031 | -76.09822 | 35032 ft | 417 kts | 240° |
| 2026-05-04 23:10 | 39.93436 | -76.12947 | 35326 ft | 415 kts | 240° |
| 2026-05-04 23:10 | 39.91828 | -76.16093 | 35624 ft | 414 kts | 240° |
| 2026-05-04 23:10 | 39.90232 | -76.19216 | 35858 ft | 412 kts | 240° |
| 2026-05-04 23:10 | 39.88654 | -76.22299 | 35892 ft | 412 kts | 240° |
| 2026-05-04 23:11 | 39.85515 | -76.28417 | 35883 ft | 406 kts | 240° |
| 2026-05-04 23:11 | 39.82346 | -76.34591 | 35875 ft | 406 kts | 240° |
| 2026-05-04 23:12 | 39.79199 | -76.40712 | 35886 ft | 405 kts | 240° |
| 2026-05-04 23:12 | 39.76061 | -76.46801 | 35879 ft | 405 kts | 240° |
| 2026-05-04 23:13 | 39.72932 | -76.52863 | 35887 ft | 404 kts | 240° |
| 2026-05-04 23:13 | 39.69760 | -76.58991 | 35893 ft | 404 kts | 240° |
| 2026-05-04 23:14 | 39.66629 | -76.65031 | 35886 ft | 404 kts | 240° |
| 2026-05-04 23:14 | 39.63464 | -76.71126 | 35889 ft | 405 kts | 240° |
| 2026-05-04 23:15 | 39.60294 | -76.77216 | 35888 ft | 405 kts | 240° |
| 2026-05-04 23:15 | 39.57153 | -76.83243 | 35884 ft | 404 kts | 239° |
| 2026-05-04 23:16 | 39.53994 | -76.89284 | 35881 ft | 404 kts | 239° |
| 2026-05-04 23:16 | 39.50650 | -76.95145 | 35894 ft | 406 kts | 234° |
| 2026-05-04 23:17 | 39.46748 | -77.00536 | 35889 ft | 409 kts | 227° |
| 2026-05-04 23:17 | 39.42379 | -77.05363 | 35887 ft | 412 kts | 223° |
| 2026-05-04 23:18 | 39.37948 | -77.10018 | 35891 ft | 412 kts | 223° |
| 2026-05-04 23:18 | 39.33490 | -77.14698 | 35906 ft | 412 kts | 223° |
| 2026-05-04 23:19 | 39.29031 | -77.19372 | 35909 ft | 412 kts | 223° |
| 2026-05-04 23:19 | 39.24543 | -77.24070 | 35897 ft | 412 kts | 223° |
| 2026-05-04 23:20 | 39.20098 | -77.28712 | 35906 ft | 412 kts | 223° |
| 2026-05-04 23:20 | 39.15629 | -77.33373 | 35912 ft | 412 kts | 223° |
| 2026-05-04 23:21 | 39.11164 | -77.38022 | 35898 ft | 411 kts | 223° |
| 2026-05-04 23:21 | 39.06701 | -77.42663 | 35897 ft | 412 kts | 223° |
| 2026-05-04 23:22 | 39.02232 | -77.47304 | 35889 ft | 412 kts | 223° |
| 2026-05-04 23:22 | 38.97738 | -77.51960 | 35901 ft | 411 kts | 223° |
| 2026-05-04 23:23 | 38.93273 | -77.56581 | 36161 ft | 413 kts | 223° |
| 2026-05-04 23:23 | 38.91024 | -77.58903 | 36472 ft | 412 kts | 223° |
| 2026-05-04 23:23 | 38.88811 | -77.61187 | 36796 ft | 410 kts | 223° |
| 2026-05-04 23:24 | 38.86602 | -77.63466 | 37109 ft | 409 kts | 223° |
| 2026-05-04 23:24 | 38.84427 | -77.65706 | 37383 ft | 408 kts | 222° |
| 2026-05-04 23:24 | 38.82252 | -77.67947 | 37636 ft | 408 kts | 223° |
| 2026-05-04 23:24 | 38.80083 | -77.70180 | 37875 ft | 408 kts | 223° |
| 2026-05-04 23:25 | 38.75726 | -77.74662 | 37919 ft | 408 kts | 222° |
| 2026-05-04 23:25 | 38.71304 | -77.79197 | 37921 ft | 407 kts | 222° |
| 2026-05-04 23:26 | 38.66929 | -77.83794 | 37921 ft | 406 kts | 225° |
| 2026-05-04 23:26 | 38.62950 | -77.88886 | 37925 ft | 402 kts | 232° |
| 2026-05-04 23:27 | 38.59477 | -77.94447 | 37927 ft | 400 kts | 236° |
| 2026-05-04 23:27 | 38.56139 | -78.00135 | 37932 ft | 400 kts | 237° |
| 2026-05-04 23:28 | 38.52793 | -78.05829 | 37934 ft | 400 kts | 236° |
| 2026-05-04 23:28 | 38.49445 | -78.11510 | 37928 ft | 400 kts | 236° |
| 2026-05-04 23:29 | 38.46108 | -78.17162 | 37931 ft | 400 kts | 236° |
| 2026-05-04 23:29 | 38.42748 | -78.22844 | 37938 ft | 400 kts | 236° |
| 2026-05-04 23:30 | 38.39397 | -78.28501 | 37933 ft | 399 kts | 236° |
| 2026-05-04 23:30 | 38.36060 | -78.34126 | 37949 ft | 399 kts | 236° |
| 2026-05-04 23:31 | 38.32701 | -78.39777 | 37938 ft | 399 kts | 236° |
| 2026-05-04 23:31 | 38.29348 | -78.45408 | 37938 ft | 399 kts | 237° |
| 2026-05-04 23:32 | 38.25991 | -78.51032 | 37946 ft | 399 kts | 237° |
| 2026-05-04 23:32 | 38.22642 | -78.56638 | 37955 ft | 398 kts | 237° |
| 2026-05-04 23:33 | 38.19294 | -78.62232 | 37961 ft | 398 kts | 236° |
| 2026-05-04 23:33 | 38.15928 | -78.67847 | 37967 ft | 398 kts | 236° |
| 2026-05-04 23:34 | 38.12568 | -78.73444 | 37963 ft | 398 kts | 236° |
| 2026-05-04 23:34 | 38.09192 | -78.79052 | 37961 ft | 398 kts | 236° |
| 2026-05-04 23:35 | 38.05854 | -78.84590 | 37968 ft | 397 kts | 236° |
| 2026-05-04 23:35 | 38.02481 | -78.90179 | 37966 ft | 397 kts | 236° |
| 2026-05-04 23:36 | 37.99127 | -78.95729 | 37965 ft | 396 kts | 236° |
| 2026-05-04 23:36 | 37.95776 | -79.01261 | 37955 ft | 396 kts | 236° |
| 2026-05-04 23:37 | 37.92414 | -79.06802 | 37953 ft | 396 kts | 236° |
| 2026-05-04 23:37 | 37.88966 | -79.12196 | 37962 ft | 397 kts | 232° |
| 2026-05-04 23:38 | 37.85299 | -79.17313 | 37970 ft | 398 kts | 232° |
| 2026-05-04 23:38 | 37.81546 | -79.22535 | 37975 ft | 397 kts | 232° |
| 2026-05-04 23:39 | 37.77844 | -79.27680 | 37987 ft | 397 kts | 232° |
| 2026-05-04 23:39 | 37.74111 | -79.32859 | 37979 ft | 396 kts | 232° |
| 2026-05-04 23:40 | 37.70406 | -79.37992 | 37972 ft | 396 kts | 232° |
| 2026-05-04 23:40 | 37.66707 | -79.43108 | 37981 ft | 395 kts | 232° |
| 2026-05-04 23:41 | 37.62992 | -79.48238 | 37985 ft | 394 kts | 232° |
| 2026-05-04 23:41 | 37.59277 | -79.53359 | 37985 ft | 394 kts | 232° |
| 2026-05-04 23:42 | 37.55551 | -79.58494 | 37989 ft | 403 kts | 232° |
| 2026-05-04 23:42 | 37.51744 | -79.63730 | 37990 ft | 408 kts | 232° |
| 2026-05-04 23:43 | 37.47889 | -79.69018 | 37993 ft | 408 kts | 231° |
| 2026-05-04 23:43 | 37.44042 | -79.74283 | 37978 ft | 408 kts | 231° |
| 2026-05-04 23:44 | 37.40208 | -79.79525 | 37979 ft | 407 kts | 232° |
| 2026-05-04 23:44 | 37.36377 | -79.84757 | 37982 ft | 406 kts | 232° |
| 2026-05-04 23:45 | 37.32541 | -79.89985 | 37983 ft | 406 kts | 232° |
| 2026-05-04 23:45 | 37.28709 | -79.95203 | 37992 ft | 406 kts | 232° |
| 2026-05-04 23:46 | 37.24865 | -80.00423 | 37993 ft | 405 kts | 232° |
| 2026-05-04 23:46 | 37.21034 | -80.05625 | 37984 ft | 406 kts | 232° |
| 2026-05-04 23:47 | 37.17192 | -80.10828 | 37990 ft | 406 kts | 232° |
| 2026-05-04 23:47 | 37.13371 | -80.15994 | 38000 ft | 404 kts | 232° |
| 2026-05-04 23:48 | 37.09502 | -80.21223 | 37999 ft | 409 kts | 232° |
| 2026-05-04 23:48 | 37.05608 | -80.26475 | 38009 ft | 416 kts | 231° |
| 2026-05-04 23:49 | 37.01655 | -80.31789 | 38017 ft | 417 kts | 231° |
| 2026-05-04 23:49 | 36.97599 | -80.37020 | 38017 ft | 417 kts | 230° |
| 2026-05-04 23:50 | 36.93530 | -80.42205 | 38009 ft | 417 kts | 230° |
| 2026-05-04 23:50 | 36.89492 | -80.47353 | 38015 ft | 417 kts | 230° |
| 2026-05-04 23:51 | 36.85421 | -80.52547 | 38026 ft | 417 kts | 230° |
| 2026-05-04 23:51 | 36.81338 | -80.57747 | 38031 ft | 416 kts | 230° |
| 2026-05-04 23:52 | 36.77256 | -80.62940 | 38026 ft | 415 kts | 230° |
| 2026-05-04 23:52 | 36.73199 | -80.68092 | 38031 ft | 416 kts | 230° |
| 2026-05-04 23:53 | 36.69143 | -80.73234 | 38026 ft | 416 kts | 230° |
| 2026-05-04 23:53 | 36.65060 | -80.78404 | 38030 ft | 415 kts | 230° |
| 2026-05-04 23:54 | 36.60997 | -80.83540 | 38028 ft | 416 kts | 230° |
| 2026-05-04 23:54 | 36.56925 | -80.88677 | 38031 ft | 415 kts | 230° |
| 2026-05-04 23:55 | 36.52871 | -80.93787 | 38035 ft | 415 kts | 230° |
| 2026-05-04 23:56 | 36.46770 | -81.01460 | 38040 ft | 415 kts | 230° |
| 2026-05-04 23:56 | 36.42722 | -81.06540 | 38040 ft | 415 kts | 230° |
| 2026-05-04 23:57 | 36.38646 | -81.11648 | 38038 ft | 415 kts | 230° |
| 2026-05-04 23:57 | 36.34581 | -81.16734 | 38044 ft | 415 kts | 230° |
| 2026-05-04 23:58 | 36.30494 | -81.21841 | 38048 ft | 414 kts | 230° |
| 2026-05-04 23:58 | 36.26439 | -81.26904 | 38043 ft | 414 kts | 230° |
| 2026-05-04 23:59 | 36.22385 | -81.31959 | 38040 ft | 413 kts | 230° |
| 2026-05-04 23:59 | 36.18341 | -81.36996 | 38042 ft | 414 kts | 230° |
| 2026-05-05 00:00 | 36.14279 | -81.42049 | 38044 ft | 414 kts | 230° |
| 2026-05-05 00:00 | 36.10207 | -81.47105 | 38052 ft | 414 kts | 230° |
| 2026-05-05 00:01 | 36.06148 | -81.52136 | 38053 ft | 413 kts | 230° |
| 2026-05-05 00:01 | 36.02072 | -81.57183 | 38053 ft | 412 kts | 230° |
| 2026-05-05 00:02 | 35.98029 | -81.62180 | 38049 ft | 413 kts | 230° |
| 2026-05-05 00:02 | 35.94011 | -81.67139 | 38054 ft | 413 kts | 230° |
| 2026-05-05 00:03 | 35.89963 | -81.72127 | 38050 ft | 413 kts | 230° |
| 2026-05-05 00:03 | 35.85956 | -81.77055 | 38054 ft | 412 kts | 230° |
| 2026-05-05 00:04 | 35.81887 | -81.82056 | 38049 ft | 412 kts | 230° |
| 2026-05-05 00:04 | 35.77838 | -81.87003 | 38059 ft | 412 kts | 229° |
| 2026-05-05 00:05 | 35.73679 | -81.91980 | 38026 ft | 412 kts | 229° |
| 2026-05-05 00:05 | 35.69551 | -81.96912 | 38044 ft | 412 kts | 229° |
| 2026-05-05 00:06 | 35.65435 | -82.01823 | 38049 ft | 413 kts | 229° |
| 2026-05-05 00:06 | 35.61320 | -82.06735 | 38041 ft | 413 kts | 229° |
| 2026-05-05 00:07 | 35.57183 | -82.11663 | 38045 ft | 413 kts | 229° |
| 2026-05-05 00:07 | 35.53021 | -82.16614 | 38045 ft | 414 kts | 229° |
| 2026-05-05 00:08 | 35.48894 | -82.21518 | 38035 ft | 414 kts | 229° |
| 2026-05-05 00:08 | 35.44730 | -82.26457 | 38053 ft | 414 kts | 229° |
| 2026-05-05 00:09 | 35.40633 | -82.31375 | 38049 ft | 413 kts | 231° |
| 2026-05-05 00:09 | 35.36591 | -82.36421 | 38047 ft | 413 kts | 231° |
| 2026-05-05 00:10 | 35.32580 | -82.41420 | 38043 ft | 413 kts | 231° |
| 2026-05-05 00:10 | 35.28520 | -82.46459 | 38049 ft | 413 kts | 231° |
| 2026-05-05 00:11 | 35.24485 | -82.51457 | 38059 ft | 413 kts | 231° |
| 2026-05-05 00:11 | 35.20416 | -82.56489 | 38055 ft | 413 kts | 231° |
| 2026-05-05 00:12 | 35.16363 | -82.61488 | 38041 ft | 414 kts | 231° |
| 2026-05-05 00:12 | 35.12243 | -82.66428 | 38037 ft | 415 kts | 229° |
| 2026-05-05 00:13 | 35.08116 | -82.71311 | 38041 ft | 415 kts | 229° |
| 2026-05-05 00:13 | 35.06039 | -82.73772 | 37878 ft | 417 kts | 229° |
| 2026-05-05 00:13 | 35.03926 | -82.76276 | 37528 ft | 415 kts | 229° |
| 2026-05-05 00:13 | 35.01893 | -82.78685 | 37087 ft | 412 kts | 229° |
| 2026-05-05 00:14 | 34.99817 | -82.81145 | 36371 ft | 412 kts | 229° |
| 2026-05-05 00:14 | 34.97764 | -82.83578 | 35732 ft | 414 kts | 228° |
| 2026-05-05 00:14 | 34.95702 | -82.86019 | 35099 ft | 415 kts | 228° |
| 2026-05-05 00:14 | 34.93619 | -82.88479 | 34465 ft | 415 kts | 227° |
| 2026-05-05 00:15 | 34.91548 | -82.90890 | 33713 ft | 415 kts | 227° |
| 2026-05-05 00:15 | 34.89520 | -82.93235 | 32876 ft | 418 kts | 227° |
| 2026-05-05 00:15 | 34.87392 | -82.95694 | 31965 ft | 422 kts | 227° |
| 2026-05-05 00:15 | 34.85302 | -82.98110 | 31201 ft | 428 kts | 227° |
| 2026-05-05 00:16 | 34.83175 | -83.00571 | 30697 ft | 432 kts | 227° |
| 2026-05-05 00:16 | 34.80976 | -83.03110 | 30190 ft | 435 kts | 227° |
| 2026-05-05 00:16 | 34.78764 | -83.05662 | 29695 ft | 437 kts | 227° |
| 2026-05-05 00:16 | 34.76555 | -83.08212 | 29197 ft | 438 kts | 227° |
| 2026-05-05 00:17 | 34.74346 | -83.10758 | 28693 ft | 439 kts | 227° |
| 2026-05-05 00:17 | 34.72119 | -83.13322 | 28182 ft | 440 kts | 227° |
| 2026-05-05 00:17 | 34.69880 | -83.15900 | 27667 ft | 442 kts | 227° |
| 2026-05-05 00:17 | 34.67655 | -83.18459 | 27151 ft | 443 kts | 227° |
| 2026-05-05 00:18 | 34.65397 | -83.21056 | 26622 ft | 445 kts | 226° |
| 2026-05-05 00:18 | 34.63172 | -83.23613 | 26101 ft | 447 kts | 226° |
| 2026-05-05 00:18 | 34.60884 | -83.26239 | 25559 ft | 448 kts | 226° |
| 2026-05-05 00:18 | 34.58637 | -83.28817 | 25024 ft | 450 kts | 226° |
| 2026-05-05 00:19 | 34.56337 | -83.31453 | 24459 ft | 452 kts | 226° |
| 2026-05-05 00:19 | 34.54054 | -83.34071 | 23906 ft | 453 kts | 226° |
| 2026-05-05 00:19 | 34.51758 | -83.36710 | 23355 ft | 454 kts | 226° |
| 2026-05-05 00:19 | 34.49464 | -83.39351 | 22804 ft | 455 kts | 226° |
| 2026-05-05 00:20 | 34.47178 | -83.41979 | 22279 ft | 450 kts | 226° |
| 2026-05-05 00:20 | 34.44927 | -83.44560 | 21693 ft | 440 kts | 226° |
| 2026-05-05 00:20 | 34.42720 | -83.47089 | 21142 ft | 431 kts | 226° |
| 2026-05-05 00:20 | 34.40573 | -83.49551 | 20632 ft | 422 kts | 226° |
| 2026-05-05 00:21 | 34.38454 | -83.51977 | 20138 ft | 413 kts | 226° |
| 2026-05-05 00:21 | 34.36383 | -83.54349 | 19634 ft | 406 kts | 226° |
| 2026-05-05 00:21 | 34.34340 | -83.56690 | 19139 ft | 404 kts | 226° |
| 2026-05-05 00:21 | 34.32295 | -83.59029 | 18608 ft | 402 kts | 226° |
| 2026-05-05 00:22 | 34.30248 | -83.61366 | 18134 ft | 399 kts | 225° |
| 2026-05-05 00:22 | 34.28233 | -83.63644 | 17608 ft | 396 kts | 224° |
| 2026-05-05 00:22 | 34.26162 | -83.65866 | 17125 ft | 394 kts | 223° |
| 2026-05-05 00:22 | 34.24118 | -83.68024 | 16610 ft | 392 kts | 223° |
| 2026-05-05 00:23 | 34.22211 | -83.70039 | 16158 ft | 390 kts | 223° |
| 2026-05-05 00:23 | 34.20197 | -83.72172 | 15682 ft | 388 kts | 223° |
| 2026-05-05 00:23 | 34.18156 | -83.74334 | 15210 ft | 382 kts | 223° |
| 2026-05-05 00:23 | 34.16179 | -83.76432 | 14803 ft | 373 kts | 223° |
| 2026-05-05 00:24 | 34.14239 | -83.78490 | 14386 ft | 366 kts | 223° |
| 2026-05-05 00:24 | 34.12351 | -83.80496 | 13959 ft | 359 kts | 223° |
| 2026-05-05 00:24 | 34.10458 | -83.82503 | 13513 ft | 354 kts | 223° |
| 2026-05-05 00:24 | 34.08631 | -83.84444 | 13093 ft | 348 kts | 223° |
| 2026-05-05 00:25 | 34.06826 | -83.86384 | 12674 ft | 341 kts | 223° |
| 2026-05-05 00:25 | 34.05088 | -83.88254 | 12121 ft | 327 kts | 223° |
| 2026-05-05 00:25 | 34.03382 | -83.90013 | 11573 ft | 313 kts | 216° |
| 2026-05-05 00:25 | 34.01517 | -83.91281 | 11068 ft | 303 kts | 207° |
| 2026-05-05 00:26 | 33.99635 | -83.92340 | 10642 ft | 295 kts | 206° |
| 2026-05-05 00:26 | 33.97778 | -83.93381 | 10258 ft | 293 kts | 206° |
| 2026-05-05 00:26 | 33.95961 | -83.94425 | 10063 ft | 282 kts | 207° |
| 2026-05-05 00:26 | 33.94220 | -83.95445 | 9984 ft | 271 kts | 207° |
| 2026-05-05 00:27 | 33.92528 | -83.96448 | 9625 ft | 272 kts | 207° |
| 2026-05-05 00:27 | 33.90817 | -83.97472 | 9264 ft | 271 kts | 207° |
| 2026-05-05 00:27 | 33.89158 | -83.98468 | 8912 ft | 271 kts | 207° |
| 2026-05-05 00:27 | 33.87494 | -83.99470 | 8570 ft | 271 kts | 207° |
| 2026-05-05 00:28 | 33.85887 | -84.00437 | 8245 ft | 270 kts | 207° |
| 2026-05-05 00:28 | 33.84332 | -84.01376 | 7930 ft | 269 kts | 207° |
| 2026-05-05 00:28 | 33.82678 | -84.02374 | 7595 ft | 268 kts | 207° |
| 2026-05-05 00:28 | 33.81021 | -84.03373 | 7265 ft | 266 kts | 207° |
| 2026-05-05 00:29 | 33.79442 | -84.04326 | 6948 ft | 265 kts | 207° |
| 2026-05-05 00:29 | 33.77794 | -84.05319 | 6622 ft | 263 kts | 208° |
| 2026-05-05 00:29 | 33.76148 | -84.06313 | 6292 ft | 262 kts | 208° |
| 2026-05-05 00:29 | 33.74519 | -84.07295 | 5962 ft | 261 kts | 208° |
| 2026-05-05 00:30 | 33.72888 | -84.08279 | 5635 ft | 259 kts | 207° |
| 2026-05-05 00:30 | 33.71275 | -84.09251 | 5313 ft | 258 kts | 207° |
| 2026-05-05 00:30 | 33.69673 | -84.10216 | 5036 ft | 254 kts | 207° |
| 2026-05-05 00:30 | 33.68140 | -84.11137 | 4989 ft | 240 kts | 207° |
| 2026-05-05 00:31 | 33.66692 | -84.12008 | 4981 ft | 224 kts | 208° |
| 2026-05-05 00:31 | 33.65509 | -84.13188 | 4975 ft | 221 kts | 238° |
| 2026-05-05 00:31 | 33.64978 | -84.14922 | 4830 ft | 225 kts | 259° |
| 2026-05-05 00:31 | 33.64881 | -84.16798 | 4574 ft | 224 kts | 269° |
| 2026-05-05 00:32 | 33.64933 | -84.18646 | 4339 ft | 221 kts | 270° |
| 2026-05-05 00:32 | 33.64982 | -84.20479 | 4117 ft | 217 kts | 269° |
| 2026-05-05 00:32 | 33.65000 | -84.22267 | 3922 ft | 211 kts | 268° |
| 2026-05-05 00:32 | 33.64997 | -84.24036 | 3650 ft | 210 kts | 267° |
| 2026-05-05 00:33 | 33.64989 | -84.25800 | 3379 ft | 209 kts | 266° |
| 2026-05-05 00:33 | 33.64980 | -84.27531 | 3118 ft | 208 kts | 266° |
| 2026-05-05 00:33 | 33.64976 | -84.29230 | 2934 ft | 198 kts | 266° |
| 2026-05-05 00:33 | 33.64972 | -84.30836 | 2640 ft | 185 kts | 266° |
| 2026-05-05 00:34 | 33.64969 | -84.32332 | 2380 ft | 175 kts | 266° |
| 2026-05-05 00:34 | 33.64966 | -84.33752 | 2147 ft | 165 kts | 266° |
| 2026-05-05 00:34 | 33.64964 | -84.35087 | 1953 ft | 153 kts | 266° |
| 2026-05-05 00:34 | 33.64963 | -84.36304 | 1770 ft | 141 kts | 266° |
| 2026-05-05 00:35 | 33.64961 | -84.37476 | 1595 ft | 138 kts | 265° |
| 2026-05-05 00:35 | 33.64959 | -84.38625 | 1423 ft | 138 kts | 266° |
| 2026-05-05 00:35 | 33.64957 | -84.39780 | 1233 ft | 137 kts | 267° |
| 2026-05-05 00:35 | 33.64955 | -84.40926 | 1063 ft | 136 kts | 268° |
| 2026-05-05 00:36 | 33.64953 | -84.41994 | 1010 ft | 115 kts | 270° |
| 2026-05-05 00:36 | 33.64953 | -84.42757 | 1016 ft | 65 kts | 270° |
| 2026-05-05 00:36 | 33.64935 | -84.43124 | 1021 ft | 32 kts | 254° |
| 2026-05-05 00:36 | 33.64887 | -84.43278 | 1022 ft | 9 kts | 240° |
| 2026-05-05 00:37 | 33.64832 | -84.43310 | 1022 ft | 9 kts | 164° |
| 2026-05-05 00:37 | 33.64790 | -84.43243 | 1021 ft | 11 kts | 92° |
| 2026-05-05 00:37 | 33.64789 | -84.43136 | 1020 ft | 13 kts | 91° |
| 2026-05-05 00:37 | 33.64788 | -84.43016 | 1019 ft | 15 kts | 90° |
| 2026-05-05 00:38 | 33.64789 | -84.42883 | 1018 ft | 16 kts | 90° |
| 2026-05-05 00:38 | 33.64789 | -84.42740 | 1016 ft | 18 kts | 91° |
| 2026-05-05 00:38 | 33.64790 | -84.42587 | 1015 ft | 18 kts | 90° |
| 2026-05-05 00:38 | 33.64788 | -84.42429 | 1014 ft | 19 kts | 92° |
| 2026-05-05 00:39 | 33.64780 | -84.42270 | 1013 ft | 18 kts | 123° |
| 2026-05-05 00:39 | 33.64664 | -84.42238 | 1013 ft | 17 kts | 180° |
| 2026-05-05 00:39 | 33.64542 | -84.42239 | 1013 ft | 17 kts | 180° |
| 2026-05-05 00:39 | 33.64427 | -84.42233 | 1016 ft | 14 kts | 181° |
| 2026-05-05 00:40 | 33.64333 | -84.42234 | 1020 ft | 12 kts | 180° |
| 2026-05-05 00:40 | 33.64267 | -84.42264 | 1022 ft | 10 kts | 242° |
| 2026-05-05 00:40 | 33.64263 | -84.42354 | 1022 ft | 11 kts | 270° |
| 2026-05-05 00:40 | 33.64308 | -84.42418 | 1022 ft | 11 kts | 357° |
| 2026-05-05 00:41 | 33.64388 | -84.42419 | 1022 ft | 8 kts | 343° |
| 2026-05-05 00:41 | 33.64406 | -84.42492 | 1022 ft | 9 kts | 266° |
| 2026-05-05 00:41 | 33.64406 | -84.42522 | 1022 ft | 0 kts | 269° |
| 2026-05-05 00:41 | 33.64406 | -84.42523 | 1022 ft | 0 kts | 269° |